sensor_id;sensor_type;location;lat;lon;timestamp;P1;durP1;ratioP1;P2;durP2;ratioP2
51529;SDS011;37613;51.788;21.582;2022-07-22T00:42:02;31.10;;;10.30;;
51529;SDS011;37613;51.788;21.582;2022-07-22T00:46:04;28.20;;;10.70;;
51529;SDS011;37613;51.788;21.582;2022-07-22T00:50:06;32.70;;;11.00;;
51529;SDS011;37613;51.788;21.582;2022-07-22T00:58:11;24.60;;;10.00;;
51529;SDS011;37613;51.788;21.582;2022-07-22T01:02:12;35.10;;;10.80;;
51529;SDS011;37613;51.788;21.582;2022-07-22T01:06:14;18.50;;;9.50;;
51529;SDS011;37613;51.788;21.582;2022-07-22T01:10:16;35.30;;;11.40;;
51529;SDS011;37613;51.788;21.582;2022-07-22T01:14:18;35.60;;;11.00;;
51529;SDS011;37613;51.788;21.582;2022-07-22T01:18:20;33.00;;;12.50;;
51529;SDS011;37613;51.788;21.582;2022-07-22T01:22:22;28.80;;;10.90;;
51529;SDS011;37613;51.788;21.582;2022-07-22T01:26:24;37.60;;;12.40;;
51529;SDS011;37613;51.788;21.582;2022-07-22T01:30:26;33.60;;;10.90;;
51529;SDS011;37613;51.788;21.582;2022-07-22T01:34:28;38.50;;;11.70;;
51529;SDS011;37613;51.788;21.582;2022-07-22T01:38:30;35.70;;;12.80;;
51529;SDS011;37613;51.788;21.582;2022-07-22T01:42:32;33.70;;;12.40;;
51529;SDS011;37613;51.788;21.582;2022-07-22T01:46:33;38.20;;;11.60;;
51529;SDS011;37613;51.788;21.582;2022-07-22T01:50:35;23.40;;;10.30;;
51529;SDS011;37613;51.788;21.582;2022-07-22T01:54:38;28.70;;;10.80;;
51529;SDS011;37613;51.788;21.582;2022-07-22T01:58:39;24.60;;;9.80;;
51529;SDS011;37613;51.788;21.582;2022-07-22T02:02:42;25.60;;;9.50;;
51529;SDS011;37613;51.788;21.582;2022-07-22T02:06:44;21.30;;;9.40;;
51529;SDS011;37613;51.788;21.582;2022-07-22T02:10:45;16.10;;;8.60;;
51529;SDS011;37613;51.788;21.582;2022-07-22T02:14:47;23.20;;;9.30;;
51529;SDS011;37613;51.788;21.582;2022-07-22T02:29:42;18.20;;;7.80;;
51529;SDS011;37613;51.788;21.582;2022-07-22T02:33:44;19.50;;;8.20;;
51529;SDS011;37613;51.788;21.582;2022-07-22T02:37:45;18.40;;;8.10;;
51529;SDS011;37613;51.788;21.582;2022-07-22T02:41:47;23.80;;;8.60;;
51529;SDS011;37613;51.788;21.582;2022-07-22T02:45:50;24.40;;;8.60;;
51529;SDS011;37613;51.788;21.582;2022-07-22T02:49:52;19.70;;;8.90;;
51529;SDS011;37613;51.788;21.582;2022-07-22T02:53:53;21.40;;;8.00;;
51529;SDS011;37613;51.788;21.582;2022-07-22T02:57:55;19.70;;;8.20;;
51529;SDS011;37613;51.788;21.582;2022-07-22T03:01:57;21.00;;;9.20;;
51529;SDS011;37613;51.788;21.582;2022-07-22T03:05:59;12.60;;;7.50;;
51529;SDS011;37613;51.788;21.582;2022-07-22T03:10:01;15.40;;;7.50;;
51529;SDS011;37613;51.788;21.582;2022-07-22T03:14:04;18.70;;;8.30;;
51529;SDS011;37613;51.788;21.582;2022-07-22T03:18:06;22.20;;;8.00;;
51529;SDS011;37613;51.788;21.582;2022-07-22T03:22:08;23.20;;;8.10;;
51529;SDS011;37613;51.788;21.582;2022-07-22T03:26:10;19.00;;;8.60;;
51529;SDS011;37613;51.788;21.582;2022-07-22T03:40:13;24.40;;;7.70;;
51529;SDS011;37613;51.788;21.582;2022-07-22T03:44:15;18.00;;;8.30;;
51529;SDS011;37613;51.788;21.582;2022-07-22T03:48:16;20.30;;;7.90;;
51529;SDS011;37613;51.788;21.582;2022-07-22T03:52:18;20.50;;;7.30;;
51529;SDS011;37613;51.788;21.582;2022-07-22T03:56:20;32.60;;;12.90;;
51529;SDS011;37613;51.788;21.582;2022-07-22T04:00:22;14.80;;;7.20;;
51529;SDS011;37613;51.788;21.582;2022-07-22T04:04:24;12.00;;;6.80;;
51529;SDS011;37613;51.788;21.582;2022-07-22T04:08:25;18.60;;;9.20;;
51529;SDS011;37613;51.788;21.582;2022-07-22T04:12:27;15.30;;;6.10;;
51529;SDS011;37613;51.788;21.582;2022-07-22T04:16:29;12.00;;;5.80;;
51529;SDS011;37613;51.788;21.582;2022-07-22T04:20:31;18.00;;;6.40;;
51529;SDS011;37613;51.788;21.582;2022-07-22T04:24:33;12.10;;;6.50;;
51529;SDS011;37613;51.788;21.582;2022-07-22T04:28:35;12.90;;;6.00;;
51529;SDS011;37613;51.788;21.582;2022-07-22T04:32:37;15.60;;;5.60;;
51529;SDS011;37613;51.788;21.582;2022-07-22T04:36:39;10.20;;;5.20;;
51529;SDS011;37613;51.788;21.582;2022-07-22T04:40:41;14.20;;;5.10;;
51529;SDS011;37613;51.788;21.582;2022-07-22T04:44:43;15.20;;;5.30;;
51529;SDS011;37613;51.788;21.582;2022-07-22T04:48:46;13.20;;;4.60;;
51529;SDS011;37613;51.788;21.582;2022-07-22T04:52:47;10.90;;;4.20;;
51529;SDS011;37613;51.788;21.582;2022-07-22T05:00:51;5.70;;;3.30;;
51529;SDS011;37613;51.788;21.582;2022-07-22T05:04:53;9.30;;;3.70;;
51529;SDS011;37613;51.788;21.582;2022-07-22T05:08:54;6.20;;;3.20;;
51529;SDS011;37613;51.788;21.582;2022-07-22T05:12:56;4.90;;;3.50;;
51529;SDS011;37613;51.788;21.582;2022-07-22T05:16:58;5.20;;;3.60;;
51529;SDS011;37613;51.788;21.582;2022-07-22T05:21:01;5.60;;;3.40;;
51529;SDS011;37613;51.788;21.582;2022-07-22T05:25:03;7.10;;;3.70;;
51529;SDS011;37613;51.788;21.582;2022-07-22T05:29:06;5.10;;;3.40;;
51529;SDS011;37613;51.788;21.582;2022-07-22T05:33:08;6.10;;;3.60;;
51529;SDS011;37613;51.788;21.582;2022-07-22T05:37:10;5.80;;;3.80;;
51529;SDS011;37613;51.788;21.582;2022-07-22T05:41:11;8.30;;;3.40;;
51529;SDS011;37613;51.788;21.582;2022-07-22T05:45:13;7.50;;;3.70;;
51529;SDS011;37613;51.788;21.582;2022-07-22T05:49:15;7.90;;;3.90;;
51529;SDS011;37613;51.788;21.582;2022-07-22T05:53:17;7.40;;;4.20;;
51529;SDS011;37613;51.788;21.582;2022-07-22T05:57:19;7.50;;;3.80;;
51529;SDS011;37613;51.788;21.582;2022-07-22T06:01:21;5.90;;;3.70;;
51529;SDS011;37613;51.788;21.582;2022-07-22T06:05:23;7.70;;;3.70;;
51529;SDS011;37613;51.788;21.582;2022-07-22T06:09:25;8.50;;;4.60;;
51529;SDS011;37613;51.788;21.582;2022-07-22T06:13:27;8.00;;;4.10;;
51529;SDS011;37613;51.788;21.582;2022-07-22T06:17:29;6.30;;;4.30;;
51529;SDS011;37613;51.788;21.582;2022-07-22T06:21:31;6.80;;;3.50;;
51529;SDS011;37613;51.788;21.582;2022-07-22T06:25:33;7.30;;;3.30;;
51529;SDS011;37613;51.788;21.582;2022-07-22T06:29:35;9.70;;;3.60;;
51529;SDS011;37613;51.788;21.582;2022-07-22T06:33:37;10.40;;;3.30;;
51529;SDS011;37613;51.788;21.582;2022-07-22T06:37:39;6.20;;;3.40;;
51529;SDS011;37613;51.788;21.582;2022-07-22T06:41:41;7.00;;;3.70;;
51529;SDS011;37613;51.788;21.582;2022-07-22T06:45:43;7.70;;;3.30;;
51529;SDS011;37613;51.788;21.582;2022-07-22T06:49:45;5.00;;;3.20;;
51529;SDS011;37613;51.788;21.582;2022-07-22T06:53:47;9.70;;;3.10;;
51529;SDS011;37613;51.788;21.582;2022-07-22T06:57:50;9.10;;;3.00;;
51529;SDS011;37613;51.788;21.582;2022-07-22T07:01:52;5.60;;;2.90;;
51529;SDS011;37613;51.788;21.582;2022-07-22T07:05:54;6.10;;;2.80;;
51529;SDS011;37613;51.788;21.582;2022-07-22T07:09:56;6.20;;;3.00;;
51529;SDS011;37613;51.788;21.582;2022-07-22T07:13:58;4.40;;;2.70;;
51529;SDS011;37613;51.788;21.582;2022-07-22T07:18:00;6.20;;;2.90;;
51529;SDS011;37613;51.788;21.582;2022-07-22T07:22:02;6.40;;;2.50;;
51529;SDS011;37613;51.788;21.582;2022-07-22T07:26:03;10.30;;;3.00;;
51529;SDS011;37613;51.788;21.582;2022-07-22T07:30:06;5.20;;;4.00;;
51529;SDS011;37613;51.788;21.582;2022-07-22T07:34:10;5.70;;;3.90;;
51529;SDS011;37613;51.788;21.582;2022-07-22T07:38:12;9.80;;;3.60;;
51529;SDS011;37613;51.788;21.582;2022-07-22T07:42:13;7.50;;;2.50;;
51529;SDS011;37613;51.788;21.582;2022-07-22T07:46:15;6.50;;;3.30;;
51529;SDS011;37613;51.788;21.582;2022-07-22T07:50:17;7.60;;;3.20;;
51529;SDS011;37613;51.788;21.582;2022-07-22T07:54:19;3.30;;;2.60;;
51529;SDS011;37613;51.788;21.582;2022-07-22T07:58:22;4.70;;;2.60;;
51529;SDS011;37613;51.788;21.582;2022-07-22T08:02:24;4.90;;;2.80;;
51529;SDS011;37613;51.788;21.582;2022-07-22T08:06:25;7.50;;;2.90;;
51529;SDS011;37613;51.788;21.582;2022-07-22T08:10:27;4.90;;;3.00;;
51529;SDS011;37613;51.788;21.582;2022-07-22T08:14:29;6.10;;;3.30;;
51529;SDS011;37613;51.788;21.582;2022-07-22T08:18:31;3.70;;;2.40;;
51529;SDS011;37613;51.788;21.582;2022-07-22T08:22:33;6.80;;;2.80;;
51529;SDS011;37613;51.788;21.582;2022-07-22T08:26:36;3.30;;;2.70;;
51529;SDS011;37613;51.788;21.582;2022-07-22T08:30:37;5.10;;;2.40;;
51529;SDS011;37613;51.788;21.582;2022-07-22T08:34:41;5.20;;;2.00;;
51529;SDS011;37613;51.788;21.582;2022-07-22T08:38:43;4.30;;;2.10;;
51529;SDS011;37613;51.788;21.582;2022-07-22T08:42:49;3.70;;;2.30;;
51529;SDS011;37613;51.788;21.582;2022-07-22T08:46:52;4.50;;;2.50;;
51529;SDS011;37613;51.788;21.582;2022-07-22T08:50:54;4.10;;;2.30;;
51529;SDS011;37613;51.788;21.582;2022-07-22T08:54:56;4.40;;;2.50;;
51529;SDS011;37613;51.788;21.582;2022-07-22T08:58:58;7.90;;;2.70;;
51529;SDS011;37613;51.788;21.582;2022-07-22T09:02:59;4.10;;;2.10;;
51529;SDS011;37613;51.788;21.582;2022-07-22T09:07:01;4.50;;;2.00;;
51529;SDS011;37613;51.788;21.582;2022-07-22T09:11:16;7.00;;;3.10;;
51529;SDS011;37613;51.788;21.582;2022-07-22T09:15:32;3.40;;;2.40;;
51529;SDS011;37613;51.788;21.582;2022-07-22T09:19:37;3.90;;;2.20;;
51529;SDS011;37613;51.788;21.582;2022-07-22T09:23:40;4.60;;;2.50;;
51529;SDS011;37613;51.788;21.582;2022-07-22T09:27:43;5.40;;;2.50;;
51529;SDS011;37613;51.788;21.582;2022-07-22T09:31:49;5.80;;;2.30;;
51529;SDS011;37613;51.788;21.582;2022-07-22T09:36:00;3.90;;;2.30;;
51529;SDS011;37613;51.788;21.582;2022-07-22T09:40:23;5.60;;;2.90;;
51529;SDS011;37613;51.788;21.582;2022-07-22T09:44:26;4.10;;;2.20;;
51529;SDS011;37613;51.788;21.582;2022-07-22T09:48:28;5.20;;;2.60;;
51529;SDS011;37613;51.788;21.582;2022-07-22T09:52:30;5.00;;;2.20;;
51529;SDS011;37613;51.788;21.582;2022-07-22T09:56:32;4.90;;;2.30;;
51529;SDS011;37613;51.788;21.582;2022-07-22T10:00:35;4.10;;;2.20;;
51529;SDS011;37613;51.788;21.582;2022-07-22T10:04:38;4.30;;;2.50;;
51529;SDS011;37613;51.788;21.582;2022-07-22T10:08:43;5.10;;;2.40;;
51529;SDS011;37613;51.788;21.582;2022-07-22T10:12:49;4.30;;;2.70;;
51529;SDS011;37613;51.788;21.582;2022-07-22T10:16:53;4.30;;;2.50;;
51529;SDS011;37613;51.788;21.582;2022-07-22T10:25:09;4.60;;;2.60;;
51529;SDS011;37613;51.788;21.582;2022-07-22T10:33:55;4.40;;;2.20;;
51529;SDS011;37613;51.788;21.582;2022-07-22T10:37:59;6.50;;;2.30;;
51529;SDS011;37613;51.788;21.582;2022-07-22T10:42:04;3.50;;;2.40;;
51529;SDS011;37613;51.788;21.582;2022-07-22T10:46:06;3.80;;;2.30;;
51529;SDS011;37613;51.788;21.582;2022-07-22T10:50:37;5.80;;;2.40;;
51529;SDS011;37613;51.788;21.582;2022-07-22T10:59:18;5.50;;;2.80;;
51529;SDS011;37613;51.788;21.582;2022-07-22T11:03:23;3.20;;;2.20;;
51529;SDS011;37613;51.788;21.582;2022-07-22T11:07:26;6.70;;;2.20;;
51529;SDS011;37613;51.788;21.582;2022-07-22T11:11:31;10.20;;;2.40;;
51529;SDS011;37613;51.788;21.582;2022-07-22T11:15:36;5.50;;;2.30;;
51529;SDS011;37613;51.788;21.582;2022-07-22T11:19:38;6.10;;;2.50;;
51529;SDS011;37613;51.788;21.582;2022-07-22T11:23:42;4.10;;;2.60;;
51529;SDS011;37613;51.788;21.582;2022-07-22T11:27:51;2.60;;;2.30;;
51529;SDS011;37613;51.788;21.582;2022-07-22T11:31:59;4.70;;;2.40;;
51529;SDS011;37613;51.788;21.582;2022-07-22T11:36:07;3.50;;;2.40;;
51529;SDS011;37613;51.788;21.582;2022-07-22T11:40:13;7.70;;;2.50;;
51529;SDS011;37613;51.788;21.582;2022-07-22T11:44:21;9.10;;;2.70;;
51529;SDS011;37613;51.788;21.582;2022-07-22T11:48:31;3.90;;;2.60;;
51529;SDS011;37613;51.788;21.582;2022-07-22T11:52:33;5.30;;;3.00;;
51529;SDS011;37613;51.788;21.582;2022-07-22T11:56:35;5.40;;;2.80;;
51529;SDS011;37613;51.788;21.582;2022-07-22T12:05:09;6.40;;;2.40;;
51529;SDS011;37613;51.788;21.582;2022-07-22T12:09:16;4.60;;;2.40;;
51529;SDS011;37613;51.788;21.582;2022-07-22T12:13:27;7.10;;;2.60;;
51529;SDS011;37613;51.788;21.582;2022-07-22T12:17:32;5.50;;;2.30;;
51529;SDS011;37613;51.788;21.582;2022-07-22T12:21:49;5.00;;;2.60;;
51529;SDS011;37613;51.788;21.582;2022-07-22T12:26:04;5.20;;;2.50;;
51529;SDS011;37613;51.788;21.582;2022-07-22T12:30:12;5.10;;;2.70;;
51529;SDS011;37613;51.788;21.582;2022-07-22T12:34:15;4.20;;;3.10;;
51529;SDS011;37613;51.788;21.582;2022-07-22T12:38:17;6.80;;;2.80;;
51529;SDS011;37613;51.788;21.582;2022-07-22T12:42:19;11.70;;;3.70;;
51529;SDS011;37613;51.788;21.582;2022-07-22T12:46:22;5.90;;;3.00;;
51529;SDS011;37613;51.788;21.582;2022-07-22T12:54:37;5.80;;;2.90;;
51529;SDS011;37613;51.788;21.582;2022-07-22T12:58:40;7.70;;;3.50;;
51529;SDS011;37613;51.788;21.582;2022-07-22T13:07:59;6.90;;;3.40;;
51529;SDS011;37613;51.788;21.582;2022-07-22T13:12:01;5.60;;;3.30;;
51529;SDS011;37613;51.788;21.582;2022-07-22T13:16:02;8.20;;;4.00;;
51529;SDS011;37613;51.788;21.582;2022-07-22T13:20:05;6.80;;;3.70;;
51529;SDS011;37613;51.788;21.582;2022-07-22T13:24:08;9.00;;;3.30;;
51529;SDS011;37613;51.788;21.582;2022-07-22T13:28:10;6.10;;;4.00;;
51529;SDS011;37613;51.788;21.582;2022-07-22T13:32:12;11.90;;;3.60;;
51529;SDS011;37613;51.788;21.582;2022-07-22T13:36:14;8.90;;;3.80;;
51529;SDS011;37613;51.788;21.582;2022-07-22T13:40:16;5.60;;;4.20;;
51529;SDS011;37613;51.788;21.582;2022-07-22T13:44:18;7.60;;;4.20;;
51529;SDS011;37613;51.788;21.582;2022-07-22T13:48:21;12.50;;;4.50;;
51529;SDS011;37613;51.788;21.582;2022-07-22T13:52:23;8.80;;;4.00;;
51529;SDS011;37613;51.788;21.582;2022-07-22T13:56:25;6.70;;;3.90;;
51529;SDS011;37613;51.788;21.582;2022-07-22T14:00:27;6.20;;;4.20;;
51529;SDS011;37613;51.788;21.582;2022-07-22T14:04:29;7.10;;;4.40;;
51529;SDS011;37613;51.788;21.582;2022-07-22T14:08:31;8.80;;;4.40;;
51529;SDS011;37613;51.788;21.582;2022-07-22T14:12:33;10.50;;;5.00;;
51529;SDS011;37613;51.788;21.582;2022-07-22T14:16:36;6.60;;;4.70;;
51529;SDS011;37613;51.788;21.582;2022-07-22T14:20:38;9.10;;;4.20;;
51529;SDS011;37613;51.788;21.582;2022-07-22T14:24:41;11.30;;;5.10;;
51529;SDS011;37613;51.788;21.582;2022-07-22T14:28:43;5.80;;;4.50;;
51529;SDS011;37613;51.788;21.582;2022-07-22T14:32:45;9.50;;;4.90;;
51529;SDS011;37613;51.788;21.582;2022-07-22T14:36:47;5.70;;;4.30;;
51529;SDS011;37613;51.788;21.582;2022-07-22T14:40:49;9.50;;;4.50;;
51529;SDS011;37613;51.788;21.582;2022-07-22T14:44:51;9.50;;;5.30;;
51529;SDS011;37613;51.788;21.582;2022-07-22T14:48:53;11.90;;;5.00;;
51529;SDS011;37613;51.788;21.582;2022-07-22T14:52:54;7.70;;;4.80;;
51529;SDS011;37613;51.788;21.582;2022-07-22T14:56:56;9.30;;;5.00;;
51529;SDS011;37613;51.788;21.582;2022-07-22T15:00:58;7.60;;;5.10;;
51529;SDS011;37613;51.788;21.582;2022-07-22T15:05:00;8.60;;;5.20;;
51529;SDS011;37613;51.788;21.582;2022-07-22T15:09:02;9.70;;;5.00;;
51529;SDS011;37613;51.788;21.582;2022-07-22T15:13:04;16.20;;;6.10;;
51529;SDS011;37613;51.788;21.582;2022-07-22T15:17:06;9.90;;;5.30;;
51529;SDS011;37613;51.788;21.582;2022-07-22T15:21:07;10.30;;;5.60;;
51529;SDS011;37613;51.788;21.582;2022-07-22T15:25:09;9.40;;;5.40;;
51529;SDS011;37613;51.788;21.582;2022-07-22T15:29:13;6.80;;;5.00;;
51529;SDS011;37613;51.788;21.582;2022-07-22T15:33:15;10.00;;;5.30;;
51529;SDS011;37613;51.788;21.582;2022-07-22T15:37:17;6.00;;;4.80;;
51529;SDS011;37613;51.788;21.582;2022-07-22T15:41:21;9.90;;;5.30;;
51529;SDS011;37613;51.788;21.582;2022-07-22T15:45:24;6.40;;;5.10;;
51529;SDS011;37613;51.788;21.582;2022-07-22T15:49:26;9.90;;;5.50;;
51529;SDS011;37613;51.788;21.582;2022-07-22T15:53:27;13.50;;;5.50;;
51529;SDS011;37613;51.788;21.582;2022-07-22T15:57:29;11.90;;;8.60;;
51529;SDS011;37613;51.788;21.582;2022-07-22T16:01:50;7.50;;;5.60;;
51529;SDS011;37613;51.788;21.582;2022-07-22T16:05:52;7.00;;;5.50;;
51529;SDS011;37613;51.788;21.582;2022-07-22T16:09:55;9.30;;;5.40;;
51529;SDS011;37613;51.788;21.582;2022-07-22T16:13:57;8.20;;;5.60;;
51529;SDS011;37613;51.788;21.582;2022-07-22T16:18:00;8.00;;;5.90;;
51529;SDS011;37613;51.788;21.582;2022-07-22T16:22:02;9.30;;;5.80;;
51529;SDS011;37613;51.788;21.582;2022-07-22T16:26:05;9.30;;;6.10;;
51529;SDS011;37613;51.788;21.582;2022-07-22T16:30:07;10.60;;;5.80;;
51529;SDS011;37613;51.788;21.582;2022-07-22T16:34:10;7.90;;;5.40;;
51529;SDS011;37613;51.788;21.582;2022-07-22T16:38:12;8.70;;;6.20;;
51529;SDS011;37613;51.788;21.582;2022-07-22T16:42:14;8.70;;;6.20;;
51529;SDS011;37613;51.788;21.582;2022-07-22T16:46:16;8.00;;;6.60;;
51529;SDS011;37613;51.788;21.582;2022-07-22T16:50:18;11.30;;;5.70;;
51529;SDS011;37613;51.788;21.582;2022-07-22T16:54:20;7.90;;;6.70;;
51529;SDS011;37613;51.788;21.582;2022-07-22T16:58:21;10.20;;;6.10;;
51529;SDS011;37613;51.788;21.582;2022-07-22T17:02:23;7.90;;;5.90;;
51529;SDS011;37613;51.788;21.582;2022-07-22T17:06:25;6.70;;;5.80;;
51529;SDS011;37613;51.788;21.582;2022-07-22T17:10:27;7.20;;;6.20;;
51529;SDS011;37613;51.788;21.582;2022-07-22T17:14:29;9.90;;;6.10;;
51529;SDS011;37613;51.788;21.582;2022-07-22T17:18:31;6.30;;;5.70;;
51529;SDS011;37613;51.788;21.582;2022-07-22T17:22:37;7.90;;;6.60;;
51529;SDS011;37613;51.788;21.582;2022-07-22T17:26:39;10.50;;;6.20;;
51529;SDS011;37613;51.788;21.582;2022-07-22T17:30:42;9.50;;;6.30;;
51529;SDS011;37613;51.788;21.582;2022-07-22T17:34:44;9.00;;;6.00;;
51529;SDS011;37613;51.788;21.582;2022-07-22T17:38:48;7.70;;;6.50;;
51529;SDS011;37613;51.788;21.582;2022-07-22T17:42:50;7.70;;;6.00;;
51529;SDS011;37613;51.788;21.582;2022-07-22T17:46:52;9.30;;;7.30;;
51529;SDS011;37613;51.788;21.582;2022-07-22T17:50:54;7.50;;;6.70;;
51529;SDS011;37613;51.788;21.582;2022-07-22T17:54:56;7.30;;;6.40;;
51529;SDS011;37613;51.788;21.582;2022-07-22T17:58:59;10.90;;;6.60;;
51529;SDS011;37613;51.788;21.582;2022-07-22T18:03:02;10.90;;;7.10;;
51529;SDS011;37613;51.788;21.582;2022-07-22T18:07:05;7.40;;;6.70;;
51529;SDS011;37613;51.788;21.582;2022-07-22T18:11:07;10.60;;;7.00;;
51529;SDS011;37613;51.788;21.582;2022-07-22T18:15:09;9.40;;;8.20;;
51529;SDS011;37613;51.788;21.582;2022-07-22T18:19:11;13.40;;;12.10;;
51529;SDS011;37613;51.788;21.582;2022-07-22T18:27:15;15.60;;;11.60;;
51529;SDS011;37613;51.788;21.582;2022-07-22T18:35:18;8.80;;;7.80;;
51529;SDS011;37613;51.788;21.582;2022-07-22T18:39:20;8.50;;;7.50;;
51529;SDS011;37613;51.788;21.582;2022-07-22T18:47:24;9.60;;;8.40;;
51529;SDS011;37613;51.788;21.582;2022-07-22T18:55:27;12.10;;;10.00;;
51529;SDS011;37613;51.788;21.582;2022-07-22T18:59:29;11.90;;;9.30;;
51529;SDS011;37613;51.788;21.582;2022-07-22T19:03:31;24.80;;;15.70;;
51529;SDS011;37613;51.788;21.582;2022-07-22T19:07:33;22.90;;;14.00;;
51529;SDS011;37613;51.788;21.582;2022-07-22T19:15:36;14.10;;;10.40;;
51529;SDS011;37613;51.788;21.582;2022-07-22T19:19:38;10.60;;;9.50;;
51529;SDS011;37613;51.788;21.582;2022-07-22T19:23:40;10.30;;;9.30;;
51529;SDS011;37613;51.788;21.582;2022-07-22T19:27:42;14.00;;;10.10;;
51529;SDS011;37613;51.788;21.582;2022-07-22T19:31:44;12.90;;;10.00;;
51529;SDS011;37613;51.788;21.582;2022-07-22T19:35:45;12.80;;;10.20;;
51529;SDS011;37613;51.788;21.582;2022-07-22T19:39:47;12.70;;;9.90;;
51529;SDS011;37613;51.788;21.582;2022-07-22T19:43:51;12.00;;;10.80;;
51529;SDS011;37613;51.788;21.582;2022-07-22T19:51:54;10.40;;;9.40;;
51529;SDS011;37613;51.788;21.582;2022-07-22T19:55:56;11.70;;;10.50;;
51529;SDS011;37613;51.788;21.582;2022-07-22T19:59:58;12.50;;;11.10;;
51529;SDS011;37613;51.788;21.582;2022-07-22T20:08:02;11.00;;;9.90;;
51529;SDS011;37613;51.788;21.582;2022-07-22T20:12:04;12.30;;;11.00;;
51529;SDS011;37613;51.788;21.582;2022-07-22T20:16:07;12.90;;;11.00;;
51529;SDS011;37613;51.788;21.582;2022-07-22T20:20:09;12.00;;;10.80;;
51529;SDS011;37613;51.788;21.582;2022-07-22T20:24:12;11.80;;;10.60;;
51529;SDS011;37613;51.788;21.582;2022-07-22T20:28:13;11.80;;;10.60;;
51529;SDS011;37613;51.788;21.582;2022-07-22T20:32:17;14.60;;;13.00;;
51529;SDS011;37613;51.788;21.582;2022-07-22T20:36:18;17.00;;;13.00;;
51529;SDS011;37613;51.788;21.582;2022-07-22T20:40:20;16.20;;;12.30;;
51529;SDS011;37613;51.788;21.582;2022-07-22T20:44:22;16.10;;;12.00;;
51529;SDS011;37613;51.788;21.582;2022-07-22T20:48:24;17.70;;;13.90;;
51529;SDS011;37613;51.788;21.582;2022-07-22T20:52:26;21.60;;;15.30;;
51529;SDS011;37613;51.788;21.582;2022-07-22T20:56:29;19.90;;;14.40;;
51529;SDS011;37613;51.788;21.582;2022-07-22T21:04:32;13.90;;;12.10;;
51529;SDS011;37613;51.788;21.582;2022-07-22T21:08:34;16.70;;;12.30;;
51529;SDS011;37613;51.788;21.582;2022-07-22T21:12:36;16.50;;;12.50;;
51529;SDS011;37613;51.788;21.582;2022-07-22T21:16:38;14.60;;;13.10;;
51529;SDS011;37613;51.788;21.582;2022-07-22T21:20:40;14.50;;;12.90;;
51529;SDS011;37613;51.788;21.582;2022-07-22T21:24:42;15.60;;;14.10;;
51529;SDS011;37613;51.788;21.582;2022-07-22T21:28:44;18.20;;;15.00;;
51529;SDS011;37613;51.788;21.582;2022-07-22T21:32:46;18.20;;;14.90;;
51529;SDS011;37613;51.788;21.582;2022-07-22T21:36:48;15.60;;;14.00;;
51529;SDS011;37613;51.788;21.582;2022-07-22T21:40:50;16.90;;;14.20;;
51529;SDS011;37613;51.788;21.582;2022-07-22T21:44:54;16.20;;;14.10;;
51529;SDS011;37613;51.788;21.582;2022-07-22T21:48:55;22.60;;;14.40;;
51529;SDS011;37613;51.788;21.582;2022-07-22T21:52:57;16.90;;;14.30;;
51529;SDS011;37613;51.788;21.582;2022-07-22T21:56:59;20.00;;;14.90;;
51529;SDS011;37613;51.788;21.582;2022-07-22T22:01:02;17.20;;;14.10;;
51529;SDS011;37613;51.788;21.582;2022-07-22T22:05:07;16.70;;;14.90;;
51529;SDS011;37613;51.788;21.582;2022-07-22T22:09:10;16.40;;;14.60;;
51529;SDS011;37613;51.788;21.582;2022-07-22T22:13:11;19.10;;;14.40;;
51529;SDS011;37613;51.788;21.582;2022-07-22T22:17:13;17.00;;;15.20;;
51529;SDS011;37613;51.788;21.582;2022-07-22T22:21:15;18.20;;;16.30;;
51529;SDS011;37613;51.788;21.582;2022-07-22T22:25:17;18.00;;;16.10;;
51529;SDS011;37613;51.788;21.582;2022-07-22T22:29:19;18.30;;;16.30;;
51529;SDS011;37613;51.788;21.582;2022-07-22T22:33:20;18.60;;;16.60;;
51529;SDS011;37613;51.788;21.582;2022-07-22T22:37:22;18.90;;;16.90;;
51529;SDS011;37613;51.788;21.582;2022-07-22T22:41:24;22.30;;;18.20;;
51529;SDS011;37613;51.788;21.582;2022-07-22T22:45:26;23.20;;;18.00;;
51529;SDS011;37613;51.788;21.582;2022-07-22T22:49:28;20.60;;;17.30;;
51529;SDS011;37613;51.788;21.582;2022-07-22T22:53:30;20.00;;;16.50;;
51529;SDS011;37613;51.788;21.582;2022-07-22T22:57:32;19.90;;;17.80;;
51529;SDS011;37613;51.788;21.582;2022-07-22T23:01:34;23.10;;;16.40;;
51529;SDS011;37613;51.788;21.582;2022-07-22T23:05:36;27.60;;;18.30;;
51529;SDS011;37613;51.788;21.582;2022-07-22T23:13:40;24.40;;;18.50;;
51529;SDS011;37613;51.788;21.582;2022-07-22T23:17:42;24.70;;;18.70;;
51529;SDS011;37613;51.788;21.582;2022-07-22T23:21:44;29.20;;;19.40;;
51529;SDS011;37613;51.788;21.582;2022-07-22T23:25:46;28.30;;;18.60;;
51529;SDS011;37613;51.788;21.582;2022-07-22T23:29:48;26.00;;;18.30;;
51529;SDS011;37613;51.788;21.582;2022-07-22T23:33:50;27.20;;;18.80;;
51529;SDS011;37613;51.788;21.582;2022-07-22T23:37:52;26.20;;;18.90;;
51529;SDS011;37613;51.788;21.582;2022-07-22T23:41:54;25.90;;;19.40;;
51529;SDS011;37613;51.788;21.582;2022-07-22T23:45:55;26.40;;;19.30;;
51529;SDS011;37613;51.788;21.582;2022-07-22T23:49:57;26.80;;;19.70;;
51529;SDS011;37613;51.788;21.582;2022-07-22T23:54:00;31.70;;;20.60;;
51529;SDS011;37613;51.788;21.582;2022-07-22T23:58:03;26.10;;;19.30;;
